sensor_id;sensor_type;location;lat;lon;timestamp;pressure;altitude;pressure_sealevel;temperature;humidity
63903;BME280;50072;50.678;13.938;2023-05-23T00:02:06;99154.41;;;15.00;88.38
63903;BME280;50072;50.678;13.938;2023-05-23T00:04:33;99169.06;;;14.95;88.14
63903;BME280;50072;50.678;13.938;2023-05-23T00:07:02;99162.97;;;14.91;88.05
63903;BME280;50072;50.678;13.938;2023-05-23T00:09:30;99165.34;;;14.80;89.49
63903;BME280;50072;50.678;13.938;2023-05-23T00:11:57;99166.63;;;14.90;89.31
63903;BME280;50072;50.678;13.938;2023-05-23T00:14:24;99159.34;;;14.92;89.13
63903;BME280;50072;50.678;13.938;2023-05-23T00:16:50;99167.00;;;15.00;89.47
63903;BME280;50072;50.678;13.938;2023-05-23T00:19:16;99172.97;;;15.07;89.95
63903;BME280;50072;50.678;13.938;2023-05-23T00:21:42;99196.56;;;15.19;88.55
63903;BME280;50072;50.678;13.938;2023-05-23T00:24:08;99202.94;;;15.18;89.09
63903;BME280;50072;50.678;13.938;2023-05-23T00:26:35;99189.47;;;15.18;88.85
63903;BME280;50072;50.678;13.938;2023-05-23T00:29:01;99181.38;;;15.18;88.61
63903;BME280;50072;50.678;13.938;2023-05-23T00:31:27;99173.91;;;15.23;88.38
63903;BME280;50072;50.678;13.938;2023-05-23T00:33:52;99181.03;;;15.24;89.19
63903;BME280;50072;50.678;13.938;2023-05-23T00:36:18;99183.56;;;15.27;88.60
63903;BME280;50072;50.678;13.938;2023-05-23T00:38:44;99187.38;;;15.23;86.93
63903;BME280;50072;50.678;13.938;2023-05-23T00:41:12;99184.06;;;15.35;85.69
63903;BME280;50072;50.678;13.938;2023-05-23T00:43:38;99184.69;;;15.41;84.72
63903;BME280;50072;50.678;13.938;2023-05-23T00:46:04;99179.44;;;15.38;84.77
63903;BME280;50072;50.678;13.938;2023-05-23T00:48:30;99179.69;;;15.33;85.82
63903;BME280;50072;50.678;13.938;2023-05-23T00:50:57;99185.56;;;15.41;84.86
63903;BME280;50072;50.678;13.938;2023-05-23T00:53:23;99181.28;;;15.37;85.66
63903;BME280;50072;50.678;13.938;2023-05-23T00:55:49;99185.34;;;15.28;86.01
63903;BME280;50072;50.678;13.938;2023-05-23T00:58:16;99189.13;;;15.24;86.76
63903;BME280;50072;50.678;13.938;2023-05-23T01:00:42;99198.50;;;15.17;86.79
63903;BME280;50072;50.678;13.938;2023-05-23T01:03:09;99195.94;;;15.31;86.86
63903;BME280;50072;50.678;13.938;2023-05-23T01:05:43;99191.38;;;15.33;86.42
63903;BME280;50072;50.678;13.938;2023-05-23T01:08:09;99198.66;;;15.31;87.07
63903;BME280;50072;50.678;13.938;2023-05-23T01:10:36;99195.00;;;15.32;86.23
63903;BME280;50072;50.678;13.938;2023-05-23T01:16:07;99188.25;;;15.41;84.77
63903;BME280;50072;50.678;13.938;2023-05-23T01:18:42;99185.31;;;15.46;84.33
63903;BME280;50072;50.678;13.938;2023-05-23T01:21:21;99187.44;;;15.57;84.67
63903;BME280;50072;50.678;13.938;2023-05-23T01:29:44;99184.66;;;15.58;85.92
63903;BME280;50072;50.678;13.938;2023-05-23T01:32:13;99178.03;;;15.48;87.15
63903;BME280;50072;50.678;13.938;2023-05-23T01:34:40;99168.97;;;15.49;87.22
63903;BME280;50072;50.678;13.938;2023-05-23T01:37:08;99173.16;;;15.54;87.95
63903;BME280;50072;50.678;13.938;2023-05-23T01:39:36;99172.13;;;15.57;86.79
63903;BME280;50072;50.678;13.938;2023-05-23T01:42:03;99177.50;;;15.57;84.99
63903;BME280;50072;50.678;13.938;2023-05-23T01:44:29;99163.25;;;15.55;85.17
63903;BME280;50072;50.678;13.938;2023-05-23T01:46:56;99176.56;;;15.58;84.31
63903;BME280;50072;50.678;13.938;2023-05-23T01:49:23;99175.47;;;15.62;84.20
63903;BME280;50072;50.678;13.938;2023-05-23T01:51:49;99170.19;;;15.77;81.95
63903;BME280;50072;50.678;13.938;2023-05-23T01:54:16;99169.22;;;15.78;80.99
63903;BME280;50072;50.678;13.938;2023-05-23T01:56:44;99163.97;;;15.75;80.98
63903;BME280;50072;50.678;13.938;2023-05-23T01:59:11;99152.00;;;15.80;82.62
63903;BME280;50072;50.678;13.938;2023-05-23T02:01:37;99144.56;;;15.85;82.87
63903;BME280;50072;50.678;13.938;2023-05-23T02:04:04;99154.47;;;15.85;83.10
63903;BME280;50072;50.678;13.938;2023-05-23T02:06:30;99144.66;;;16.00;82.09
63903;BME280;50072;50.678;13.938;2023-05-23T02:08:56;99138.56;;;15.96;81.65
63903;BME280;50072;50.678;13.938;2023-05-23T02:11:22;99139.69;;;15.92;80.04
63903;BME280;50072;50.678;13.938;2023-05-23T02:13:47;99128.72;;;15.95;81.07
63903;BME280;50072;50.678;13.938;2023-05-23T02:16:14;99111.91;;;15.90;81.29
63903;BME280;50072;50.678;13.938;2023-05-23T02:18:40;99112.25;;;16.00;80.61
63903;BME280;50072;50.678;13.938;2023-05-23T02:21:06;99119.31;;;16.02;80.10
63903;BME280;50072;50.678;13.938;2023-05-23T02:23:31;99120.72;;;16.10;79.49
63903;BME280;50072;50.678;13.938;2023-05-23T02:25:57;99123.69;;;16.05;79.33
63903;BME280;50072;50.678;13.938;2023-05-23T02:28:23;99126.81;;;16.13;80.44
63903;BME280;50072;50.678;13.938;2023-05-23T02:30:49;99121.94;;;16.04;81.38
63903;BME280;50072;50.678;13.938;2023-05-23T02:33:14;99134.66;;;16.02;83.77
63903;BME280;50072;50.678;13.938;2023-05-23T02:35:41;99152.06;;;15.96;84.95
63903;BME280;50072;50.678;13.938;2023-05-23T02:38:07;99137.22;;;15.87;87.55
63903;BME280;50072;50.678;13.938;2023-05-23T02:40:33;99111.09;;;15.72;96.78
63903;BME280;50072;50.678;13.938;2023-05-23T02:42:58;99103.22;;;15.67;100.00
63903;BME280;50072;50.678;13.938;2023-05-23T02:45:24;99098.25;;;15.60;100.00
63903;BME280;50072;50.678;13.938;2023-05-23T02:47:50;99088.22;;;15.46;100.00
63903;BME280;50072;50.678;13.938;2023-05-23T02:50:16;99076.56;;;15.45;100.00
63903;BME280;50072;50.678;13.938;2023-05-23T02:52:43;99071.75;;;15.34;100.00
63903;BME280;50072;50.678;13.938;2023-05-23T02:55:09;99100.22;;;15.40;100.00
63903;BME280;50072;50.678;13.938;2023-05-23T02:57:35;99097.31;;;15.27;100.00
63903;BME280;50072;50.678;13.938;2023-05-23T03:00:01;99099.72;;;15.16;100.00
63903;BME280;50072;50.678;13.938;2023-05-23T03:02:27;99098.59;;;15.20;100.00
63903;BME280;50072;50.678;13.938;2023-05-23T03:04:53;99078.06;;;15.17;100.00
63903;BME280;50072;50.678;13.938;2023-05-23T03:07:20;99078.78;;;15.21;100.00
63903;BME280;50072;50.678;13.938;2023-05-23T03:09:46;99070.06;;;15.16;100.00
63903;BME280;50072;50.678;13.938;2023-05-23T03:12:11;99066.41;;;15.17;100.00
63903;BME280;50072;50.678;13.938;2023-05-23T03:14:37;99075.13;;;15.22;100.00
63903;BME280;50072;50.678;13.938;2023-05-23T03:17:03;99104.56;;;14.92;100.00
63903;BME280;50072;50.678;13.938;2023-05-23T03:19:29;99100.19;;;14.89;100.00
63903;BME280;50072;50.678;13.938;2023-05-23T03:21:55;99076.03;;;14.88;100.00
63903;BME280;50072;50.678;13.938;2023-05-23T03:24:21;99073.75;;;14.80;100.00
63903;BME280;50072;50.678;13.938;2023-05-23T03:26:46;99076.53;;;14.78;100.00
63903;BME280;50072;50.678;13.938;2023-05-23T03:29:12;99097.22;;;14.78;100.00
63903;BME280;50072;50.678;13.938;2023-05-23T03:31:38;99082.06;;;14.75;100.00
63903;BME280;50072;50.678;13.938;2023-05-23T03:34:04;99064.91;;;14.78;100.00
63903;BME280;50072;50.678;13.938;2023-05-23T03:36:30;99073.75;;;14.80;100.00
63903;BME280;50072;50.678;13.938;2023-05-23T03:38:58;99061.88;;;14.84;100.00
63903;BME280;50072;50.678;13.938;2023-05-23T03:41:24;99054.19;;;14.94;100.00
63903;BME280;50072;50.678;13.938;2023-05-23T03:43:51;99051.41;;;14.95;100.00
63903;BME280;50072;50.678;13.938;2023-05-23T03:46:16;99060.09;;;15.00;100.00
63903;BME280;50072;50.678;13.938;2023-05-23T03:48:42;99076.25;;;15.00;100.00
63903;BME280;50072;50.678;13.938;2023-05-23T03:51:08;99070.44;;;14.92;100.00
63903;BME280;50072;50.678;13.938;2023-05-23T03:53:34;99083.34;;;14.86;100.00
63903;BME280;50072;50.678;13.938;2023-05-23T03:56:00;99101.75;;;14.58;100.00
63903;BME280;50072;50.678;13.938;2023-05-23T03:58:26;99089.94;;;14.43;100.00
63903;BME280;50072;50.678;13.938;2023-05-23T04:00:51;99075.94;;;14.54;100.00
63903;BME280;50072;50.678;13.938;2023-05-23T04:03:18;99087.22;;;14.62;100.00
63903;BME280;50072;50.678;13.938;2023-05-23T04:05:45;99098.25;;;14.56;100.00
63903;BME280;50072;50.678;13.938;2023-05-23T04:08:11;99091.28;;;14.52;100.00
63903;BME280;50072;50.678;13.938;2023-05-23T04:10:37;99090.44;;;14.69;100.00
63903;BME280;50072;50.678;13.938;2023-05-23T04:13:03;99097.22;;;14.78;100.00
63903;BME280;50072;50.678;13.938;2023-05-23T04:15:29;99098.16;;;14.77;100.00
63903;BME280;50072;50.678;13.938;2023-05-23T04:17:54;99103.94;;;14.87;100.00
63903;BME280;50072;50.678;13.938;2023-05-23T04:20:20;99099.34;;;14.89;100.00
63903;BME280;50072;50.678;13.938;2023-05-23T04:22:47;99105.44;;;14.92;100.00
63903;BME280;50072;50.678;13.938;2023-05-23T04:25:13;99102.19;;;14.86;100.00
63903;BME280;50072;50.678;13.938;2023-05-23T04:27:44;99109.16;;;14.90;100.00
63903;BME280;50072;50.678;13.938;2023-05-23T04:30:12;99108.28;;;14.89;100.00
63903;BME280;50072;50.678;13.938;2023-05-23T04:32:38;99109.47;;;14.83;100.00
63903;BME280;50072;50.678;13.938;2023-05-23T04:35:05;99119.72;;;14.77;100.00
63903;BME280;50072;50.678;13.938;2023-05-23T04:37:32;99122.56;;;14.74;100.00
63903;BME280;50072;50.678;13.938;2023-05-23T04:39:58;99119.94;;;14.72;100.00
63903;BME280;50072;50.678;13.938;2023-05-23T04:42:26;99117.03;;;14.77;100.00
63903;BME280;50072;50.678;13.938;2023-05-23T04:44:54;99113.91;;;14.84;100.00
63903;BME280;50072;50.678;13.938;2023-05-23T04:47:23;99114.31;;;14.94;100.00
63903;BME280;50072;50.678;13.938;2023-05-23T04:49:53;99111.84;;;15.07;100.00
63903;BME280;50072;50.678;13.938;2023-05-23T04:52:20;99114.59;;;15.23;100.00
63903;BME280;50072;50.678;13.938;2023-05-23T04:54:46;99117.69;;;15.33;100.00
63903;BME280;50072;50.678;13.938;2023-05-23T04:57:14;99110.81;;;15.43;100.00
63903;BME280;50072;50.678;13.938;2023-05-23T04:59:40;99113.81;;;15.54;100.00
63903;BME280;50072;50.678;13.938;2023-05-23T05:02:08;99118.34;;;15.54;100.00
63903;BME280;50072;50.678;13.938;2023-05-23T05:04:34;99123.75;;;15.54;100.00
63903;BME280;50072;50.678;13.938;2023-05-23T05:07:01;99130.81;;;15.57;100.00
63903;BME280;50072;50.678;13.938;2023-05-23T05:09:30;99117.16;;;15.60;100.00
63903;BME280;50072;50.678;13.938;2023-05-23T05:11:57;99117.97;;;15.78;100.00
63903;BME280;50072;50.678;13.938;2023-05-23T05:14:25;99124.00;;;15.83;100.00
63903;BME280;50072;50.678;13.938;2023-05-23T05:16:53;99122.88;;;15.87;100.00
63903;BME280;50072;50.678;13.938;2023-05-23T05:19:23;99130.13;;;16.02;100.00
63903;BME280;50072;50.678;13.938;2023-05-23T05:21:50;99137.63;;;16.13;100.00
63903;BME280;50072;50.678;13.938;2023-05-23T05:24:17;99136.03;;;16.25;100.00
63903;BME280;50072;50.678;13.938;2023-05-23T05:26:47;99134.91;;;16.29;100.00
63903;BME280;50072;50.678;13.938;2023-05-23T05:29:14;99137.63;;;16.29;100.00
63903;BME280;50072;50.678;13.938;2023-05-23T05:31:41;99136.41;;;16.35;100.00
63903;BME280;50072;50.678;13.938;2023-05-23T05:34:10;99135.16;;;16.41;100.00
63903;BME280;50072;50.678;13.938;2023-05-23T05:36:38;99145.78;;;16.44;100.00
63903;BME280;50072;50.678;13.938;2023-05-23T05:39:11;99142.81;;;16.48;100.00
63903;BME280;50072;50.678;13.938;2023-05-23T05:41:38;99146.91;;;16.55;100.00
63903;BME280;50072;50.678;13.938;2023-05-23T05:44:08;99144.28;;;16.54;100.00
63903;BME280;50072;50.678;13.938;2023-05-23T05:46:34;99145.25;;;16.53;100.00
63903;BME280;50072;50.678;13.938;2023-05-23T05:49:01;99143.34;;;16.55;100.00
63903;BME280;50072;50.678;13.938;2023-05-23T05:51:28;99145.09;;;16.56;100.00
63903;BME280;50072;50.678;13.938;2023-05-23T05:53:54;99150.97;;;16.63;100.00
63903;BME280;50072;50.678;13.938;2023-05-23T05:56:19;99144.16;;;16.71;100.00
63903;BME280;50072;50.678;13.938;2023-05-23T05:58:47;99150.56;;;16.70;100.00
63903;BME280;50072;50.678;13.938;2023-05-23T06:01:13;99156.34;;;16.79;100.00
63903;BME280;50072;50.678;13.938;2023-05-23T06:03:39;99151.13;;;16.76;99.25
63903;BME280;50072;50.678;13.938;2023-05-23T06:06:05;99153.97;;;16.58;100.00
63903;BME280;50072;50.678;13.938;2023-05-23T06:08:31;99148.00;;;16.67;100.00
63903;BME280;50072;50.678;13.938;2023-05-23T06:10:57;99158.47;;;16.73;99.46
63903;BME280;50072;50.678;13.938;2023-05-23T06:13:22;99153.66;;;16.79;100.00
63903;BME280;50072;50.678;13.938;2023-05-23T06:15:48;99157.06;;;16.82;100.00
63903;BME280;50072;50.678;13.938;2023-05-23T06:18:15;99161.91;;;17.07;100.00
63903;BME280;50072;50.678;13.938;2023-05-23T06:20:41;99156.31;;;17.11;100.00
63903;BME280;50072;50.678;13.938;2023-05-23T06:23:06;99152.28;;;17.18;100.00
63903;BME280;50072;50.678;13.938;2023-05-23T06:25:33;99155.41;;;17.26;100.00
63903;BME280;50072;50.678;13.938;2023-05-23T06:27:59;99155.88;;;17.33;100.00
63903;BME280;50072;50.678;13.938;2023-05-23T06:30:25;99145.03;;;17.33;99.31
63903;BME280;50072;50.678;13.938;2023-05-23T06:32:51;99142.19;;;17.36;99.94
63903;BME280;50072;50.678;13.938;2023-05-23T06:35:17;99143.06;;;17.51;99.54
63903;BME280;50072;50.678;13.938;2023-05-23T06:37:42;99142.09;;;17.66;99.78
63903;BME280;50072;50.678;13.938;2023-05-23T06:40:13;99137.44;;;17.83;98.57
63903;BME280;50072;50.678;13.938;2023-05-23T06:42:39;99138.66;;;17.93;98.25
63903;BME280;50072;50.678;13.938;2023-05-23T06:45:06;99142.69;;;18.00;97.61
63903;BME280;50072;50.678;13.938;2023-05-23T06:47:32;99136.50;;;17.98;97.99
63903;BME280;50072;50.678;13.938;2023-05-23T06:49:59;99146.75;;;17.93;95.09
63903;BME280;50072;50.678;13.938;2023-05-23T06:52:25;99147.91;;;18.03;95.27
63903;BME280;50072;50.678;13.938;2023-05-23T06:54:51;99152.75;;;17.98;97.13
63903;BME280;50072;50.678;13.938;2023-05-23T06:57:16;99138.78;;;17.90;100.00
63903;BME280;50072;50.678;13.938;2023-05-23T06:59:42;99152.31;;;17.75;100.00
63903;BME280;50072;50.678;13.938;2023-05-23T07:02:08;99152.53;;;17.58;96.77
63903;BME280;50072;50.678;13.938;2023-05-23T07:04:34;99149.50;;;17.48;95.44
63903;BME280;50072;50.678;13.938;2023-05-23T07:06:59;99144.19;;;17.32;98.45
63903;BME280;50072;50.678;13.938;2023-05-23T07:09:25;99158.53;;;17.18;100.00
63903;BME280;50072;50.678;13.938;2023-05-23T07:11:51;99157.38;;;17.08;100.00
63903;BME280;50072;50.678;13.938;2023-05-23T07:14:16;99164.09;;;17.01;100.00
63903;BME280;50072;50.678;13.938;2023-05-23T07:16:44;99159.06;;;16.95;100.00
63903;BME280;50072;50.678;13.938;2023-05-23T07:19:11;99152.09;;;16.90;100.00
63903;BME280;50072;50.678;13.938;2023-05-23T07:21:36;99162.81;;;16.92;100.00
63903;BME280;50072;50.678;13.938;2023-05-23T07:24:02;99171.69;;;16.94;100.00
63903;BME280;50072;50.678;13.938;2023-05-23T07:26:28;99165.94;;;17.00;100.00
63903;BME280;50072;50.678;13.938;2023-05-23T07:28:54;99164.53;;;17.09;100.00
63903;BME280;50072;50.678;13.938;2023-05-23T07:31:19;99162.50;;;17.13;100.00
63903;BME280;50072;50.678;13.938;2023-05-23T07:33:46;99172.97;;;17.19;100.00
63903;BME280;50072;50.678;13.938;2023-05-23T07:36:11;99172.09;;;17.33;100.00
63903;BME280;50072;50.678;13.938;2023-05-23T07:38:37;99161.22;;;17.49;100.00
63903;BME280;50072;50.678;13.938;2023-05-23T07:41:03;99168.75;;;17.43;100.00
63903;BME280;50072;50.678;13.938;2023-05-23T07:43:29;99169.59;;;17.44;100.00
63903;BME280;50072;50.678;13.938;2023-05-23T07:45:54;99171.75;;;17.39;100.00
63903;BME280;50072;50.678;13.938;2023-05-23T07:48:20;99176.97;;;17.56;100.00
63903;BME280;50072;50.678;13.938;2023-05-23T07:50:46;99181.31;;;17.45;100.00
63903;BME280;50072;50.678;13.938;2023-05-23T07:53:12;99186.31;;;17.36;100.00
63903;BME280;50072;50.678;13.938;2023-05-23T07:55:37;99189.88;;;17.37;100.00
63903;BME280;50072;50.678;13.938;2023-05-23T07:58:03;99182.25;;;17.29;100.00
63903;BME280;50072;50.678;13.938;2023-05-23T08:00:29;99189.00;;;17.22;100.00
63903;BME280;50072;50.678;13.938;2023-05-23T08:02:55;99179.72;;;17.26;100.00
63903;BME280;50072;50.678;13.938;2023-05-23T08:05:21;99177.03;;;17.26;100.00
63903;BME280;50072;50.678;13.938;2023-05-23T08:07:48;99189.88;;;17.37;100.00
63903;BME280;50072;50.678;13.938;2023-05-23T08:10:14;99186.91;;;17.41;100.00
63903;BME280;50072;50.678;13.938;2023-05-23T08:12:40;99189.34;;;17.46;100.00
63903;BME280;50072;50.678;13.938;2023-05-23T08:15:06;99188.34;;;17.47;100.00
63903;BME280;50072;50.678;13.938;2023-05-23T08:17:32;99187.69;;;17.43;100.00
63903;BME280;50072;50.678;13.938;2023-05-23T08:19:58;99189.03;;;17.51;100.00
63903;BME280;50072;50.678;13.938;2023-05-23T08:22:26;99187.91;;;17.55;100.00
63903;BME280;50072;50.678;13.938;2023-05-23T08:24:51;99194.06;;;17.57;100.00
63903;BME280;50072;50.678;13.938;2023-05-23T08:27:17;99193.81;;;17.62;100.00
63903;BME280;50072;50.678;13.938;2023-05-23T08:29:43;99200.28;;;17.59;100.00
63903;BME280;50072;50.678;13.938;2023-05-23T08:32:09;99192.16;;;17.59;100.00
63903;BME280;50072;50.678;13.938;2023-05-23T08:34:35;99200.47;;;17.56;100.00
63903;BME280;50072;50.678;13.938;2023-05-23T08:37:00;99208.00;;;17.65;100.00
63903;BME280;50072;50.678;13.938;2023-05-23T08:39:26;99213.81;;;17.73;100.00
63903;BME280;50072;50.678;13.938;2023-05-23T08:41:52;99221.94;;;17.73;100.00
63903;BME280;50072;50.678;13.938;2023-05-23T08:44:18;99226.19;;;17.77;100.00
63903;BME280;50072;50.678;13.938;2023-05-23T08:46:45;99225.41;;;17.75;100.00
63903;BME280;50072;50.678;13.938;2023-05-23T08:49:12;99224.66;;;17.73;100.00
63903;BME280;50072;50.678;13.938;2023-05-23T08:51:45;99222.28;;;17.98;100.00
63903;BME280;50072;50.678;13.938;2023-05-23T08:54:12;99232.50;;;17.92;100.00
63903;BME280;50072;50.678;13.938;2023-05-23T08:56:38;99228.75;;;17.95;100.00
63903;BME280;50072;50.678;13.938;2023-05-23T08:59:07;99224.88;;;17.99;98.32
63903;BME280;50072;50.678;13.938;2023-05-23T09:01:34;99223.81;;;18.31;98.82
63903;BME280;50072;50.678;13.938;2023-05-23T09:04:07;99223.47;;;18.50;94.34
63903;BME280;50072;50.678;13.938;2023-05-23T09:06:34;99223.53;;;18.62;94.48
63903;BME280;50072;50.678;13.938;2023-05-23T09:08:59;99230.75;;;18.49;98.72
63903;BME280;50072;50.678;13.938;2023-05-23T09:11:26;99235.13;;;18.37;99.62
63903;BME280;50072;50.678;13.938;2023-05-23T09:13:52;99223.41;;;18.37;100.00
63903;BME280;50072;50.678;13.938;2023-05-23T09:16:18;99228.34;;;18.44;100.00
63903;BME280;50072;50.678;13.938;2023-05-23T09:18:45;99230.06;;;18.60;94.97
63903;BME280;50072;50.678;13.938;2023-05-23T09:21:12;99223.22;;;18.82;93.64
63903;BME280;50072;50.678;13.938;2023-05-23T09:23:40;99210.06;;;19.30;85.04
63903;BME280;50072;50.678;13.938;2023-05-23T09:26:10;99212.09;;;19.79;83.75
63903;BME280;50072;50.678;13.938;2023-05-23T09:28:39;99215.56;;;20.07;80.49
63903;BME280;50072;50.678;13.938;2023-05-23T09:31:06;99226.09;;;20.12;81.79
63903;BME280;50072;50.678;13.938;2023-05-23T09:33:41;99229.16;;;20.07;80.64
63903;BME280;50072;50.678;13.938;2023-05-23T09:36:08;99222.00;;;20.43;77.03
63903;BME280;50072;50.678;13.938;2023-05-23T09:38:38;99233.75;;;20.57;77.15
63903;BME280;50072;50.678;13.938;2023-05-23T09:41:04;99225.44;;;20.21;80.25
63903;BME280;50072;50.678;13.938;2023-05-23T09:43:30;99225.59;;;20.57;79.43
63903;BME280;50072;50.678;13.938;2023-05-23T09:46:03;99229.16;;;20.70;77.91
63903;BME280;50072;50.678;13.938;2023-05-23T09:48:31;99227.09;;;20.61;82.82
63903;BME280;50072;50.678;13.938;2023-05-23T09:50:58;99218.41;;;20.68;83.25
63903;BME280;50072;50.678;13.938;2023-05-23T09:53:28;99229.41;;;20.54;78.52
63903;BME280;50072;50.678;13.938;2023-05-23T09:55:54;99229.13;;;20.33;78.25
63903;BME280;50072;50.678;13.938;2023-05-23T09:58:25;99233.63;;;20.58;79.05
63903;BME280;50072;50.678;13.938;2023-05-23T10:00:52;99230.41;;;20.40;80.21
63903;BME280;50072;50.678;13.938;2023-05-23T10:03:25;99227.53;;;20.55;80.39
63903;BME280;50072;50.678;13.938;2023-05-23T10:05:57;99235.81;;;20.53;78.99
63903;BME280;50072;50.678;13.938;2023-05-23T10:08:40;99235.88;;;20.64;85.51
63903;BME280;50072;50.678;13.938;2023-05-23T10:13:49;99235.00;;;20.27;80.11
63903;BME280;50072;50.678;13.938;2023-05-23T10:16:37;99235.66;;;20.17;82.02
63903;BME280;50072;50.678;13.938;2023-05-23T10:19:37;99227.97;;;19.98;80.61
63903;BME280;50072;50.678;13.938;2023-05-23T10:22:07;99220.66;;;20.12;80.41
63903;BME280;50072;50.678;13.938;2023-05-23T10:24:35;99226.16;;;20.86;78.01
63903;BME280;50072;50.678;13.938;2023-05-23T10:27:01;99227.59;;;21.03;77.50
63903;BME280;50072;50.678;13.938;2023-05-23T10:29:28;99226.75;;;21.62;75.48
63903;BME280;50072;50.678;13.938;2023-05-23T10:31:55;99228.69;;;22.30;71.28
63903;BME280;50072;50.678;13.938;2023-05-23T10:37:30;99214.31;;;22.05;68.89
63903;BME280;50072;50.678;13.938;2023-05-23T10:42:44;99225.34;;;22.15;68.13
63903;BME280;50072;50.678;13.938;2023-05-23T10:45:22;99223.13;;;22.65;67.86
63903;BME280;50072;50.678;13.938;2023-05-23T10:47:50;99220.47;;;22.86;68.57
63903;BME280;50072;50.678;13.938;2023-05-23T10:50:35;99224.47;;;22.14;67.82
63903;BME280;50072;50.678;13.938;2023-05-23T10:53:08;99229.06;;;22.02;67.29
63903;BME280;50072;50.678;13.938;2023-05-23T10:55:35;99228.84;;;22.39;71.30
63903;BME280;50072;50.678;13.938;2023-05-23T10:58:11;99240.25;;;23.11;68.63
63903;BME280;50072;50.678;13.938;2023-05-23T11:00:50;99237.72;;;23.31;65.98
63903;BME280;50072;50.678;13.938;2023-05-23T11:03:17;99239.53;;;23.63;64.17
63903;BME280;50072;50.678;13.938;2023-05-23T11:05:52;99250.06;;;23.14;66.38
63903;BME280;50072;50.678;13.938;2023-05-23T11:08:18;99256.97;;;22.51;66.71
63903;BME280;50072;50.678;13.938;2023-05-23T11:10:54;99268.88;;;22.39;68.32
63903;BME280;50072;50.678;13.938;2023-05-23T11:13:21;99264.47;;;21.91;68.06
63903;BME280;50072;50.678;13.938;2023-05-23T11:15:47;99274.44;;;21.44;70.19
63903;BME280;50072;50.678;13.938;2023-05-23T11:18:30;99275.66;;;21.40;69.18
63903;BME280;50072;50.678;13.938;2023-05-23T11:20:59;99262.84;;;21.88;68.63
63903;BME280;50072;50.678;13.938;2023-05-23T11:23:39;99269.69;;;22.05;66.63
63903;BME280;50072;50.678;13.938;2023-05-23T11:26:28;99269.91;;;26.31;56.24
63903;BME280;50072;50.678;13.938;2023-05-23T11:28:55;99272.84;;;25.81;54.10
63903;BME280;50072;50.678;13.938;2023-05-23T11:31:22;99284.97;;;23.96;58.00
63903;BME280;50072;50.678;13.938;2023-05-23T11:33:51;99280.22;;;23.01;63.76
63903;BME280;50072;50.678;13.938;2023-05-23T11:36:17;99282.91;;;21.99;61.65
63903;BME280;50072;50.678;13.938;2023-05-23T11:38:43;99284.97;;;22.31;59.69
63903;BME280;50072;50.678;13.938;2023-05-23T11:41:08;99278.06;;;22.38;61.72
63903;BME280;50072;50.678;13.938;2023-05-23T11:43:34;99272.09;;;22.44;63.37
63903;BME280;50072;50.678;13.938;2023-05-23T11:46:07;99269.13;;;22.47;60.81
63903;BME280;50072;50.678;13.938;2023-05-23T11:48:33;99272.06;;;22.89;60.83
63903;BME280;50072;50.678;13.938;2023-05-23T11:51:01;99272.44;;;25.56;54.62
63903;BME280;50072;50.678;13.938;2023-05-23T11:53:27;99268.47;;;26.27;50.51
63903;BME280;50072;50.678;13.938;2023-05-23T11:55:55;99274.81;;;25.10;49.90
63903;BME280;50072;50.678;13.938;2023-05-23T11:58:26;99283.41;;;24.86;55.79
63903;BME280;50072;50.678;13.938;2023-05-23T12:01:01;99276.56;;;24.40;53.63
63903;BME280;50072;50.678;13.938;2023-05-23T12:03:31;99281.22;;;23.97;54.47
63903;BME280;50072;50.678;13.938;2023-05-23T12:05:57;99290.34;;;24.90;51.76
63903;BME280;50072;50.678;13.938;2023-05-23T12:08:24;99290.59;;;24.25;54.65
63903;BME280;50072;50.678;13.938;2023-05-23T12:10:56;99294.88;;;23.76;56.39
63903;BME280;50072;50.678;13.938;2023-05-23T12:13:24;99289.81;;;23.39;56.88
63903;BME280;50072;50.678;13.938;2023-05-23T12:15:58;99304.22;;;22.63;57.58
63903;BME280;50072;50.678;13.938;2023-05-23T12:18:27;99293.59;;;23.04;60.65
63903;BME280;50072;50.678;13.938;2023-05-23T12:20:54;99292.00;;;23.01;58.79
63903;BME280;50072;50.678;13.938;2023-05-23T12:23:21;99297.41;;;22.57;58.96
63903;BME280;50072;50.678;13.938;2023-05-23T12:25:51;99289.19;;;23.68;56.48
63903;BME280;50072;50.678;13.938;2023-05-23T12:28:18;99282.16;;;26.75;47.41
63903;BME280;50072;50.678;13.938;2023-05-23T12:30:45;99272.72;;;30.17;39.82
63903;BME280;50072;50.678;13.938;2023-05-23T12:33:11;99274.88;;;31.89;35.27
63903;BME280;50072;50.678;13.938;2023-05-23T12:35:42;99274.31;;;33.79;31.17
63903;BME280;50072;50.678;13.938;2023-05-23T12:38:13;99270.44;;;35.42;28.45
63903;BME280;50072;50.678;13.938;2023-05-23T12:40:40;99269.91;;;36.40;27.13
63903;BME280;50072;50.678;13.938;2023-05-23T12:43:08;99271.34;;;37.35;24.75
63903;BME280;50072;50.678;13.938;2023-05-23T12:45:35;99266.72;;;37.86;23.38
63903;BME280;50072;50.678;13.938;2023-05-23T12:48:02;99272.88;;;38.27;23.60
63903;BME280;50072;50.678;13.938;2023-05-23T12:50:29;99261.84;;;37.43;24.40
63903;BME280;50072;50.678;13.938;2023-05-23T12:52:55;99260.66;;;35.80;26.85
63903;BME280;50072;50.678;13.938;2023-05-23T12:55:21;99258.53;;;37.91;24.42
63903;BME280;50072;50.678;13.938;2023-05-23T12:57:48;99257.16;;;36.91;25.42
63903;BME280;50072;50.678;13.938;2023-05-23T13:00:14;99254.28;;;37.50;24.51
63903;BME280;50072;50.678;13.938;2023-05-23T13:02:40;99237.41;;;34.77;26.46
63903;BME280;50072;50.678;13.938;2023-05-23T13:05:06;99245.31;;;35.29;27.08